createdAt,value
2022-09-26T00:01:12.195Z,33.15
2022-09-26T00:03:39.627Z,33.78
2022-09-26T00:06:08.572Z,32.17
2022-09-26T00:08:37.308Z,32.60
2022-09-26T00:11:07.548Z,32.08
2022-09-26T00:13:36.799Z,30.67
2022-09-26T00:16:04.398Z,29.88
2022-09-26T00:18:31.178Z,27.98
2022-09-26T00:21:09.043Z,27.77
2022-09-26T00:23:36.101Z,28.27
2022-09-26T00:26:03.963Z,26.98
2022-09-26T00:28:30.918Z,26.20
2022-09-26T00:30:57.668Z,27.88
2022-09-26T00:33:24.397Z,27.15
2022-09-26T00:35:52.218Z,26.73
2022-09-26T00:38:19.309Z,26.05
2022-09-26T00:40:47.238Z,26.77
2022-09-26T00:43:33.538Z,26.60
2022-09-26T00:46:40.799Z,25.98
2022-09-26T00:49:21.741Z,27.73
2022-09-26T00:51:58.791Z,26.17
2022-09-26T00:54:28.298Z,25.63
2022-09-26T00:56:58.576Z,26.10
2022-09-26T00:59:39.115Z,25.98
2022-09-26T01:02:06.029Z,26.02
2022-09-26T01:04:38.146Z,27.00
2022-09-26T01:07:10.609Z,26.30
2022-09-26T01:09:39.327Z,26.55
2022-09-26T01:12:08.565Z,26.13
2022-09-26T01:14:37.664Z,25.70
2022-09-26T01:17:05.305Z,25.42
2022-09-26T01:20:08.055Z,25.10
2022-09-26T01:22:43.704Z,24.70
2022-09-26T01:25:38.635Z,24.65
2022-09-26T01:28:31.460Z,23.55
2022-09-26T01:31:40.207Z,24.63
2022-09-26T01:34:32.019Z,24.20
2022-09-26T01:37:23.603Z,24.53
2022-09-26T01:40:02.687Z,23.65
2022-09-26T01:43:00.067Z,23.23
2022-09-26T01:45:36.076Z,21.92
2022-09-26T01:48:17.136Z,23.60
2022-09-26T01:50:50.271Z,23.30
2022-09-26T01:53:42.793Z,23.70
2022-09-26T01:56:15.303Z,23.45
2022-09-26T01:58:47.693Z,22.80
2022-09-26T02:01:15.658Z,22.75
2022-09-26T02:03:58.851Z,23.83
2022-09-26T02:07:04.517Z,24.08
2022-09-26T02:09:37.789Z,24.80
2022-09-26T02:12:08.937Z,24.40
2022-09-26T02:14:41.860Z,24.15
2022-09-26T02:17:13.057Z,23.92
2022-09-26T02:19:59.046Z,22.48
2022-09-26T02:22:34.361Z,23.67
2022-09-26T02:25:02.799Z,23.25
2022-09-26T02:27:29.607Z,23.80
2022-09-26T02:29:57.610Z,22.95
2022-09-26T02:32:29.247Z,22.80
2022-09-26T02:34:56.850Z,20.75
2022-09-26T02:37:25.479Z,22.98
2022-09-26T02:39:53.472Z,22.08
2022-09-26T02:42:24.619Z,22.45
2022-09-26T02:44:57.046Z,21.23
2022-09-26T02:47:44.868Z,19.65
2022-09-26T02:50:25.510Z,19.58
2022-09-26T02:53:29.828Z,18.92
2022-09-26T02:56:06.307Z,18.02
2022-09-26T02:58:51.180Z,18.55
2022-09-26T03:01:31.466Z,18.23
2022-09-26T03:04:14.904Z,19.17
2022-09-26T03:06:45.326Z,17.92
2022-09-26T03:09:13.193Z,17.75
2022-09-26T03:11:41.965Z,17.45
2022-09-26T03:14:09.992Z,17.13
2022-09-26T03:16:42.299Z,18.15
2022-09-26T03:21:38.551Z,16.90
2022-09-26T03:24:05.304Z,16.70
2022-09-26T03:26:33.229Z,16.20
2022-09-26T03:29:00.084Z,15.18
2022-09-26T03:31:27.282Z,15.93
2022-09-26T03:33:54.047Z,15.15
2022-09-26T03:36:24.250Z,15.68
2022-09-26T03:38:50.851Z,16.27
2022-09-26T03:41:17.402Z,15.93
2022-09-26T03:43:44.055Z,15.73
2022-09-26T03:46:12.312Z,15.30
2022-09-26T03:48:39.479Z,15.07
2022-09-26T03:51:09.297Z,14.93
2022-09-26T03:53:38.417Z,14.20
2022-09-26T03:56:07.446Z,14.57
2022-09-26T03:58:34.561Z,13.77
2022-09-26T04:01:05.799Z,13.88
2022-09-26T04:03:34.102Z,13.95
2022-09-26T04:06:00.881Z,13.50
2022-09-26T04:08:27.956Z,14.35
2022-09-26T04:11:01.306Z,13.55
2022-09-26T04:13:50.009Z,14.38
2022-09-26T04:16:14.442Z,13.85
2022-09-26T04:18:41.119Z,13.95
2022-09-26T04:21:10.281Z,14.43
2022-09-26T04:23:39.798Z,13.95
2022-09-26T04:26:13.298Z,14.13
2022-09-26T04:28:40.934Z,13.65
2022-09-26T04:31:10.579Z,13.63
2022-09-26T04:33:39.251Z,13.40
2022-09-26T04:36:09.243Z,14.38
2022-09-26T04:38:36.132Z,14.80
2022-09-26T04:41:08.263Z,14.20
2022-09-26T04:43:35.343Z,13.90
2022-09-26T04:46:06.139Z,13.38
2022-09-26T04:48:32.821Z,14.18
2022-09-26T04:50:59.455Z,14.10
2022-09-26T04:53:26.524Z,13.65
2022-09-26T04:55:54.368Z,13.65
2022-09-26T04:58:21.598Z,13.98
2022-09-26T05:00:49.705Z,13.93
2022-09-26T05:03:17.414Z,13.55
2022-09-26T05:05:47.267Z,14.73
2022-09-26T05:08:17.280Z,13.50
2022-09-26T05:10:44.333Z,13.10
2022-09-26T05:13:11.008Z,13.82
2022-09-26T05:15:39.998Z,13.30
2022-09-26T05:18:08.463Z,13.13
2022-09-26T05:20:35.923Z,12.50
2022-09-26T05:23:03.710Z,13.70
2022-09-26T05:25:55.514Z,15.18
2022-09-26T05:28:22.347Z,13.17
2022-09-26T05:30:50.365Z,12.85
2022-09-26T05:33:19.909Z,12.07
2022-09-26T05:35:56.328Z,13.13
2022-09-26T05:38:22.961Z,12.00
2022-09-26T05:40:56.499Z,11.55
2022-09-26T05:43:29.013Z,10.98
2022-09-26T05:48:32.449Z,10.45
2022-09-26T05:51:13.669Z,11.30
2022-09-26T05:53:41.760Z,10.73
2022-09-26T05:56:09.521Z,11.43
2022-09-26T05:58:38.298Z,10.90
2022-09-26T06:01:16.836Z,10.00
2022-09-26T06:03:45.083Z,10.30
2022-09-26T06:06:14.174Z,10.02
2022-09-26T06:08:41.438Z,9.35
2022-09-26T06:11:16.596Z,9.30
2022-09-26T06:13:45.815Z,9.80
2022-09-26T06:16:16.719Z,9.60
2022-09-26T06:18:43.280Z,9.70
2022-09-26T06:21:11.642Z,10.15
2022-09-26T06:23:38.479Z,9.80
2022-09-26T06:26:08.401Z,9.60
2022-09-26T06:28:39.013Z,10.43
2022-09-26T06:31:15.198Z,10.70
2022-09-26T06:33:41.810Z,10.75
2022-09-26T06:36:11.071Z,10.68
2022-09-26T06:38:38.415Z,12.00
2022-09-26T06:41:07.413Z,12.05
2022-09-26T06:43:34.250Z,12.05
2022-09-26T06:46:01.065Z,11.80
2022-09-26T06:48:27.762Z,12.88
2022-09-26T06:50:57.113Z,13.13
2022-09-26T06:53:24.017Z,12.85
2022-09-26T06:55:50.691Z,13.30
2022-09-26T06:58:17.788Z,14.50
2022-09-26T07:00:44.727Z,13.27
2022-09-26T07:03:13.524Z,12.70
2022-09-26T07:05:40.085Z,11.98
2022-09-26T07:08:07.064Z,12.25
2022-09-26T07:10:37.653Z,11.52
2022-09-26T07:13:09.498Z,11.35
2022-09-26T07:15:37.141Z,12.80
2022-09-26T07:18:06.537Z,13.32
2022-09-26T07:20:36.598Z,12.93
2022-09-26T07:23:05.403Z,13.30
2022-09-26T07:25:33.434Z,12.55
2022-09-26T07:28:00.980Z,12.35
2022-09-26T07:30:28.392Z,12.55
2022-09-26T07:33:03.148Z,12.35
2022-09-26T07:35:31.282Z,11.82
2022-09-26T07:37:59.480Z,12.23
2022-09-26T07:40:27.393Z,12.32
2022-09-26T07:43:15.693Z,12.90
2022-09-26T07:46:03.864Z,12.25
2022-09-26T07:48:48.907Z,13.05
2022-09-26T07:51:16.270Z,10.82
2022-09-26T07:53:42.869Z,11.02
2022-09-26T07:56:12.810Z,10.93
2022-09-26T07:58:45.658Z,10.73
2022-09-26T08:01:14.640Z,11.20
2022-09-26T08:03:43.226Z,10.20
2022-09-26T08:06:12.377Z,10.70
2022-09-26T08:08:41.476Z,9.60
2022-09-26T08:11:16.393Z,10.40
2022-09-26T08:13:43.724Z,10.80
2022-09-26T08:16:11.740Z,11.23
2022-09-26T08:18:39.867Z,9.30
2022-09-26T08:21:07.120Z,9.15
2022-09-26T08:23:34.258Z,9.93
2022-09-26T08:26:06.862Z,9.48
2022-09-26T08:28:35.564Z,8.57
2022-09-26T08:31:05.051Z,9.05
2022-09-26T08:33:37.192Z,9.68
2022-09-26T08:36:16.041Z,10.70
2022-09-26T08:38:42.873Z,12.40
2022-09-26T08:41:32.865Z,11.23
2022-09-26T08:44:24.134Z,11.02
2022-09-26T08:47:17.923Z,12.45
2022-09-26T08:50:22.149Z,12.63
2022-09-26T08:53:05.734Z,11.63
2022-09-26T08:55:41.861Z,11.65
2022-09-26T08:58:17.374Z,12.30
2022-09-26T09:00:44.729Z,12.48
2022-09-26T09:03:31.099Z,11.60
2022-09-26T09:06:05.810Z,11.90
2022-09-26T09:08:44.370Z,10.52
2022-09-26T09:11:42.105Z,10.60
2022-09-26T09:14:14.928Z,10.52
2022-09-26T09:16:51.545Z,6.68
2022-09-26T09:20:00.991Z,9.27
2022-09-26T09:23:01.313Z,9.35
2022-09-26T09:25:35.483Z,9.23
2022-09-26T09:28:39.911Z,6.93
2022-09-26T09:31:12.414Z,9.25
2022-09-26T09:33:44.154Z,8.88
2022-09-26T09:36:17.441Z,8.23
2022-09-26T09:38:46.984Z,8.15
2022-09-26T09:41:19.271Z,8.05
2022-09-26T09:46:25.147Z,7.78
2022-09-26T09:49:00.281Z,6.90
2022-09-26T09:51:42.066Z,8.18
2022-09-26T09:54:27.413Z,7.55
2022-09-26T09:57:36.645Z,6.93
2022-09-26T10:00:16.275Z,7.50
2022-09-26T10:02:56.605Z,7.82
2022-09-26T10:05:25.394Z,7.70
2022-09-26T10:07:58.460Z,7.57
2022-09-26T10:10:39.757Z,6.93
2022-09-26T10:13:11.140Z,5.97
2022-09-26T10:16:05.660Z,5.90
2022-09-26T10:18:33.748Z,7.07
2022-09-26T10:21:16.227Z,7.18
2022-09-26T10:23:46.931Z,7.40
2022-09-26T10:26:13.989Z,7.13
2022-09-26T10:28:58.017Z,7.80
2022-09-26T10:31:31.475Z,6.50
2022-09-26T10:34:06.215Z,7.45
2022-09-26T10:36:36.850Z,7.18
2022-09-26T10:39:40.032Z,7.45
2022-09-26T10:42:15.906Z,6.82
2022-09-26T10:44:43.176Z,5.85
2022-09-26T10:47:16.838Z,6.20
2022-09-26T10:49:59.083Z,7.55
2022-09-26T10:52:40.089Z,6.38
2022-09-26T10:55:13.135Z,7.00
2022-09-26T10:57:45.695Z,6.38
2022-09-26T11:00:36.778Z,7.00
2022-09-26T11:03:05.928Z,6.20
2022-09-26T11:05:56.631Z,6.55
2022-09-26T11:08:35.007Z,6.88
2022-09-26T11:11:04.823Z,6.53
2022-09-26T11:14:08.421Z,5.85
2022-09-26T11:16:50.971Z,7.45
2022-09-26T11:19:29.850Z,6.32
2022-09-26T11:22:20.093Z,6.38
2022-09-26T11:24:54.888Z,7.05
2022-09-26T11:27:34.514Z,7.13
2022-09-26T11:30:09.316Z,8.57
2022-09-26T11:32:41.018Z,6.70
2022-09-26T11:35:29.609Z,7.13
2022-09-26T11:38:08.426Z,6.75
2022-09-26T11:40:47.223Z,7.30
2022-09-26T11:43:35.875Z,8.07
2022-09-26T11:46:34.668Z,6.35
2022-09-26T11:49:38.394Z,6.90
2022-09-26T11:52:13.089Z,7.45
2022-09-26T11:54:58.517Z,6.55
2022-09-26T11:57:34.849Z,7.03
2022-09-26T12:00:07.361Z,6.93
2022-09-26T12:02:47.399Z,6.00
2022-09-26T12:05:38.097Z,6.13
2022-09-26T12:08:07.662Z,6.65
2022-09-26T12:10:47.016Z,5.60
2022-09-26T12:13:22.622Z,6.90
2022-09-26T12:16:02.559Z,6.75
2022-09-26T12:18:43.580Z,6.53
2022-09-26T12:21:31.960Z,6.63
2022-09-26T12:24:27.353Z,6.32
2022-09-26T12:27:03.068Z,6.78
2022-09-26T12:29:53.832Z,6.93
2022-09-26T12:32:38.783Z,7.20
2022-09-26T12:35:29.182Z,6.35
2022-09-26T12:38:17.702Z,6.68
2022-09-26T12:41:14.415Z,6.10
2022-09-26T12:44:03.227Z,7.68
2022-09-26T12:46:51.910Z,6.45
2022-09-26T12:49:27.823Z,7.15
2022-09-26T12:52:16.307Z,7.30
2022-09-26T12:54:54.888Z,7.68
2022-09-26T12:57:36.036Z,6.85
2022-09-26T13:00:11.734Z,7.40
2022-09-26T13:02:51.187Z,6.38
2022-09-26T13:05:30.617Z,6.88
2022-09-26T13:08:46.143Z,5.78
2022-09-26T13:11:34.141Z,6.28
2022-09-26T13:14:06.190Z,6.43
2022-09-26T13:16:41.040Z,6.05
2022-09-26T13:19:21.860Z,5.13
2022-09-26T13:21:54.761Z,4.60
2022-09-26T13:24:34.621Z,4.93
2022-09-26T13:27:13.936Z,4.40
2022-09-26T13:29:46.272Z,4.53
2022-09-26T13:32:26.824Z,5.40
2022-09-26T13:35:00.888Z,4.75
2022-09-26T13:37:42.602Z,4.80
2022-09-26T13:40:37.985Z,5.00
2022-09-26T13:43:33.527Z,4.65
2022-09-26T13:46:27.171Z,6.47
2022-09-26T13:49:18.830Z,5.60
2022-09-26T13:51:58.282Z,5.80
2022-09-26T13:54:46.955Z,6.00
2022-09-26T13:57:35.191Z,6.15
2022-09-26T14:00:30.258Z,4.93
2022-09-26T14:03:19.563Z,5.80
2022-09-26T14:05:49.966Z,6.07
2022-09-26T14:08:44.653Z,5.85
2022-09-26T14:11:24.568Z,6.05
2022-09-26T14:14:19.422Z,5.95
2022-09-26T14:16:57.546Z,5.80
2022-09-26T14:19:33.172Z,5.60
2022-09-26T14:22:05.435Z,6.28
2022-09-26T14:24:41.820Z,6.15
2022-09-26T14:27:11.584Z,5.97
2022-09-26T14:29:38.216Z,5.80
2022-09-26T14:32:08.772Z,6.47
2022-09-26T14:34:35.434Z,5.07
2022-09-26T14:37:05.475Z,6.50
2022-09-26T14:39:38.959Z,6.35
2022-09-26T14:42:18.867Z,5.90
2022-09-26T14:44:57.803Z,4.95
2022-09-26T14:47:27.962Z,5.28
2022-09-26T14:50:13.971Z,4.50
2022-09-26T14:52:51.348Z,4.95
2022-09-26T14:55:19.304Z,6.47
2022-09-26T14:57:51.697Z,5.53
2022-09-26T15:00:43.084Z,6.45
2022-09-26T15:03:16.555Z,6.05
2022-09-26T15:05:44.757Z,6.05
2022-09-26T15:08:25.527Z,6.30
2022-09-26T15:10:56.010Z,8.55
2022-09-26T15:13:25.363Z,7.78
2022-09-26T15:16:09.963Z,8.10
2022-09-26T15:18:57.310Z,7.18
2022-09-26T15:21:41.023Z,7.07
2022-09-26T15:24:37.907Z,8.18
2022-09-26T15:27:20.426Z,7.00
2022-09-26T15:29:54.774Z,6.78
2022-09-26T15:32:32.457Z,5.78
2022-09-26T15:35:01.857Z,6.13
2022-09-26T15:37:34.941Z,4.90
2022-09-26T15:40:13.660Z,5.00
2022-09-26T15:42:58.405Z,5.40
2022-09-26T15:45:33.775Z,5.03
2022-09-26T15:48:27.898Z,3.95
2022-09-26T15:51:25.602Z,4.10
2022-09-26T15:54:09.360Z,4.18
2022-09-26T15:56:46.228Z,4.35
2022-09-26T15:59:31.644Z,3.47
2022-09-26T16:01:59.886Z,2.67
2022-09-26T16:04:29.399Z,2.15
2022-09-26T16:07:03.407Z,1.83
2022-09-26T16:09:32.284Z,1.70
2022-09-26T16:12:09.335Z,1.80
2022-09-26T16:15:05.099Z,1.50
2022-09-26T16:17:38.617Z,1.90
2022-09-26T16:20:29.930Z,1.50
2022-09-26T16:23:03.309Z,1.60
2022-09-26T16:25:52.798Z,1.63
2022-09-26T16:28:23.060Z,1.80
2022-09-26T16:30:58.681Z,1.60
2022-09-26T16:33:27.611Z,1.88
2022-09-26T16:35:54.654Z,1.67
2022-09-26T16:38:34.093Z,1.48
2022-09-26T16:41:48.871Z,1.80
2022-09-26T16:44:41.097Z,1.88
2022-09-26T16:47:30.501Z,2.20
2022-09-26T16:49:57.479Z,1.55
2022-09-26T16:52:32.841Z,2.00
2022-09-26T16:55:01.644Z,1.83
2022-09-26T16:57:35.348Z,1.45
2022-09-26T17:02:52.767Z,1.60
2022-09-26T17:05:22.829Z,1.92
2022-09-26T17:07:51.229Z,1.60
2022-09-26T17:10:21.115Z,1.70
2022-09-26T17:12:51.329Z,1.83
2022-09-26T17:15:23.887Z,1.70
2022-09-26T17:17:53.629Z,1.60
2022-09-26T17:20:23.939Z,1.70
2022-09-26T17:22:51.197Z,1.58
2022-09-26T17:25:18.799Z,1.70
2022-09-26T17:27:49.277Z,1.58
2022-09-26T17:30:19.146Z,1.75
2022-09-26T17:32:51.152Z,1.60
2022-09-26T17:35:25.860Z,1.92
2022-09-26T17:37:53.245Z,1.70
2022-09-26T17:40:24.322Z,1.63
2022-09-26T17:42:55.533Z,2.03
2022-09-26T17:45:28.631Z,1.80
2022-09-26T17:48:05.281Z,1.88
2022-09-26T17:50:33.481Z,1.75
2022-09-26T17:53:02.256Z,1.50
2022-09-26T17:55:31.008Z,1.55
2022-09-26T17:57:58.533Z,1.73
2022-09-26T18:00:27.096Z,1.83
2022-09-26T18:03:01.303Z,1.80
2022-09-26T18:05:34.486Z,1.85
2022-09-26T18:08:07.947Z,1.98
2022-09-26T18:10:35.581Z,1.95
2022-09-26T18:13:13.189Z,2.10
2022-09-26T18:15:40.302Z,1.95
2022-09-26T18:18:16.978Z,1.80
2022-09-26T18:20:45.463Z,1.80
2022-09-26T18:23:49.850Z,2.00
2022-09-26T18:26:30.800Z,1.80
2022-09-26T18:28:59.126Z,1.90
2022-09-26T18:31:31.595Z,1.85
2022-09-26T18:33:59.732Z,1.80
2022-09-26T18:36:29.679Z,2.10
2022-09-26T18:38:56.490Z,1.40
2022-09-26T18:41:26.541Z,1.90
2022-09-26T18:43:55.784Z,1.83
2022-09-26T18:46:25.415Z,1.83
2022-09-26T18:48:58.353Z,1.65
2022-09-26T18:51:26.654Z,1.65
2022-09-26T18:53:53.725Z,1.80
2022-09-26T18:56:38.951Z,1.80
2022-09-26T18:59:05.702Z,1.70
2022-09-26T19:01:35.361Z,1.50
2022-09-26T19:04:05.805Z,1.77
2022-09-26T19:06:37.353Z,1.60
2022-09-26T19:09:21.548Z,1.83
2022-09-26T19:11:48.651Z,1.40
2022-09-26T19:14:17.265Z,1.67
2022-09-26T19:16:45.567Z,1.48
2022-09-26T19:19:13.066Z,1.50
2022-09-26T19:21:42.885Z,1.95
2022-09-26T19:24:27.037Z,1.80
2022-09-26T19:26:57.458Z,1.67
2022-09-26T19:29:32.700Z,1.70
2022-09-26T19:32:00.087Z,1.63
2022-09-26T19:34:32.350Z,1.75
2022-09-26T19:37:03.234Z,1.90
2022-09-26T19:39:30.346Z,1.92
2022-09-26T19:41:57.097Z,1.88
2022-09-26T19:44:24.481Z,1.65
2022-09-26T19:46:51.546Z,1.98
2022-09-26T19:49:19.871Z,1.70
2022-09-26T19:51:47.294Z,1.55
2022-09-26T19:54:17.715Z,1.52
2022-09-26T19:56:45.792Z,1.92
2022-09-26T19:59:14.436Z,1.55
2022-09-26T20:01:42.974Z,1.50
2022-09-26T20:04:19.555Z,1.45
2022-09-26T20:06:47.749Z,1.77
2022-09-26T20:09:17.836Z,1.95
2022-09-26T20:11:45.203Z,1.75
2022-09-26T20:14:23.914Z,1.80
2022-09-26T20:16:52.224Z,1.38
2022-09-26T20:19:25.989Z,1.85
2022-09-26T20:21:53.209Z,1.55
2022-09-26T20:24:20.131Z,1.63
2022-09-26T20:26:48.176Z,1.60
2022-09-26T20:29:16.519Z,1.70
2022-09-26T20:31:43.711Z,1.80
2022-09-26T20:34:11.657Z,1.73
2022-09-26T20:36:42.164Z,1.83
2022-09-26T20:39:15.638Z,1.83
2022-09-26T20:41:43.937Z,1.90
2022-09-26T20:44:18.503Z,1.90
2022-09-26T20:46:54.033Z,1.73
2022-09-26T20:49:46.153Z,1.90
2022-09-26T20:52:20.848Z,1.83
2022-09-26T20:54:47.920Z,1.90
2022-09-26T20:57:19.757Z,1.70
2022-09-26T20:59:47.310Z,1.90
2022-09-26T21:02:26.425Z,1.90
2022-09-26T21:04:54.001Z,2.10
2022-09-26T21:07:22.686Z,2.03
2022-09-26T21:09:50.515Z,2.25
2022-09-26T21:12:18.522Z,2.03
2022-09-26T21:14:46.680Z,2.00
2022-09-26T21:17:28.712Z,2.40
2022-09-26T21:19:56.797Z,2.28
2022-09-26T21:22:26.829Z,2.63
2022-09-26T21:24:54.602Z,2.08
2022-09-26T21:27:21.363Z,2.17
2022-09-26T21:29:48.110Z,1.90
2022-09-26T21:32:19.525Z,2.30
2022-09-26T21:35:00.563Z,2.33
2022-09-26T21:37:27.559Z,2.45
2022-09-26T21:39:54.547Z,2.17
2022-09-26T21:42:23.073Z,2.20
2022-09-26T21:45:00.321Z,2.17
2022-09-26T21:47:28.097Z,2.17
2022-09-26T21:49:54.896Z,2.25
2022-09-26T21:52:46.511Z,2.17
2022-09-26T21:55:20.377Z,2.20
2022-09-26T21:57:49.232Z,2.63
2022-09-26T22:00:16.291Z,2.25
2022-09-26T22:02:43.034Z,2.63
2022-09-26T22:05:11.783Z,2.50
2022-09-26T22:07:39.021Z,2.70
2022-09-26T22:10:06.839Z,2.42
2022-09-26T22:12:34.351Z,2.50
2022-09-26T22:15:01.452Z,2.45
2022-09-26T22:17:28.159Z,2.55
2022-09-26T22:19:54.962Z,2.40
2022-09-26T22:22:21.708Z,2.55
2022-09-26T22:24:48.486Z,2.92
2022-09-26T22:27:15.288Z,2.40
2022-09-26T22:29:42.052Z,2.30
2022-09-26T22:32:09.066Z,2.88
2022-09-26T22:34:35.751Z,2.83
2022-09-26T22:37:02.486Z,2.40
2022-09-26T22:39:29.161Z,2.75
2022-09-26T22:41:55.830Z,2.33
2022-09-26T22:44:22.507Z,2.95
2022-09-26T22:46:49.224Z,2.95
2022-09-26T22:49:16.656Z,2.67
2022-09-26T22:51:43.299Z,2.40
2022-09-26T22:54:10.062Z,2.67
2022-09-26T22:56:36.775Z,2.45
2022-09-26T22:59:04.040Z,2.80
2022-09-26T23:01:30.834Z,2.22
2022-09-26T23:03:58.468Z,2.67
2022-09-26T23:06:25.474Z,2.70
2022-09-26T23:08:52.423Z,2.70
2022-09-26T23:11:20.144Z,2.50
2022-09-26T23:13:47.098Z,3.03
2022-09-26T23:16:17.319Z,3.38
2022-09-26T23:18:44.921Z,2.97
2022-09-26T23:21:20.496Z,2.47
2022-09-26T23:23:49.966Z,3.00
2022-09-26T23:26:23.415Z,2.65
2022-09-26T23:28:51.551Z,2.95
2022-09-26T23:31:18.657Z,2.63
2022-09-26T23:33:45.520Z,2.45
2022-09-26T23:36:12.492Z,2.60
2022-09-26T23:38:40.480Z,3.05
2022-09-26T23:41:09.850Z,3.10
2022-09-26T23:43:36.818Z,2.80
2022-09-26T23:46:04.320Z,2.70
2022-09-26T23:48:31.175Z,2.70
2022-09-26T23:50:58.289Z,3.17
2022-09-26T23:53:25.317Z,2.47
2022-09-26T23:55:52.279Z,2.92
2022-09-26T23:58:19.352Z,2.75
